Latest Weather Observations for Gayndah

IDQ60801

Issued at 5:32 pm EST Saturday 29 August 2015 (issued every 30 minutes, with the page automatically refreshed every 10 minutes)

About weather observations | Map of weather stations | Latest weather observations for QLD | Other Formats
Station Details ID: 039066 Name: GAYNDAH AIRPORT Lat: -25.62 Lon: 151.62 Height: 110.9 m
Data from the previous 72 hours. | See also: Recent months at Gayndah
Date/Time
EST
Temp
°C
App
Temp
°C
Dew
Point
Rel
Hum
%
Delta-T
°C
Wind Press
QNH
hPa
Press
MSL
hPa
Rain
since 9 am
mm
Dir
 
Spd
km/h
Gust
km/h
Spd
kts
Gust
kts
29/05:30pm 14.3 12.6 13.5 95 0.4 SW 15 28 8 15 1019.3 1019.2 13.8
29/05:00pm 14.4 9.4 13.4 94 0.6 SW 32 54 17 29 1018.7 1018.6 7.4
29/04:57pm 14.4 9.2 13.4 94 0.6 SSW 33 54 18 29 1018.6 1018.5 6.4
29/04:50pm 14.9 8.8 13.1 89 1.0 SSW 37 52 20 28 1018.0 1017.8 2.0
29/04:37pm 18.3 15.8 13.6 74 2.7 WSW 19 54 10 29 1017.5 1017.3 0.4
29/04:30pm 21.6 23.1 16.6 73 3.1 NW 4 11 2 6 1016.9 1016.7 0.2
29/04:00pm 23.6 22.8 14.0 55 5.6 NNE 11 19 6 10 1016.6 1016.4 0.0
29/03:30pm 24.4 23.5 13.6 51 6.3 NNE 11 19 6 10 1016.6 1016.4 0.0
29/03:00pm 25.0 23.5 13.2 48 6.9 NE 13 19 7 10 1017.0 1016.8 0.0
29/02:30pm 25.1 24.2 13.6 49 6.8 NE 11 19 6 10 1017.2 1017.0 0.0
29/02:00pm 26.3 25.3 13.4 45 7.6 N 11 17 6 9 1018.0 1017.8 0.0
29/01:30pm 25.5 25.0 13.7 48 7.0 NNE 9 19 5 10 1018.6 1018.5 0.0
29/01:00pm 24.0 23.2 12.9 50 6.4 N 9 15 5 8 1019.2 1019.1 0.0
29/12:30pm 24.0 23.2 12.9 50 6.4 NE 9 17 5 9 1019.7 1019.6 0.0
29/12:00pm 23.9 23.0 13.7 53 6.0 N 11 15 6 8 1020.2 1020.1 0.0
29/11:30am 23.2 23.0 11.9 49 6.4 N 4 9 2 5 1021.0 1020.9 0.0
29/11:00am 23.7 23.0 11.4 46 6.9 ESE 6 11 3 6 1021.3 1021.2 0.0
29/10:30am 22.7 21.7 11.1 48 6.5 E 7 11 4 6 1021.8 1021.7 0.0
29/10:00am 21.1 20.4 10.0 49 6.0 NE 4 7 2 4 1022.3 1022.2 0.0
29/09:30am 20.3 19.8 9.2 49 5.9 ENE 2 6 1 3 1022.3 1022.2 0.0
29/09:00am 19.2 18.8 8.2 49 5.7 CALM 0 4 0 2 1022.6 1022.5 0.0
29/08:30am 18.1 17.1 7.2 49 5.5 WSW 2 6 1 3 1022.4 1022.3 0.0
29/08:00am 17.7 16.3 7.4 51 5.2 WNW 4 6 2 3 1022.1 1022.0 0.0
29/07:30am 17.1 16.1 7.5 53 4.8 W 2 4 1 2 1022.2 1022.1 0.0
29/07:00am 16.6 14.8 7.3 54 4.6 W 6 9 3 5 1022.0 1021.9 0.0
29/06:30am 16.5 15.5 7.4 55 4.6 SW 2 4 1 2 1021.7 1021.6 0.0
29/06:00am 17.1 16.2 7.7 54 4.7 SSW 2 4 1 2 1021.7 1021.6 0.0
29/05:30am 17.2 15.8 7.3 52 5.0 SSE 4 6 2 3 1021.1 1021.0 0.0
29/05:00am 17.3 16.0 7.6 53 4.9 S 4 7 2 4 1020.8 1020.7 0.0
29/04:30am 17.4 16.1 7.5 52 5.0 WNW 4 6 2 3 1020.7 1020.6 0.0
29/04:00am 17.4 16.4 7.5 52 5.0 SE 2 6 1 3 1020.4 1020.3 0.0
29/03:30am 17.6 16.1 6.8 49 5.4 SSE 4 6 2 3 1020.7 1020.6 0.0
29/03:00am 17.7 15.8 6.6 48 5.5 SSE 6 9 3 5 1020.6 1020.5 0.0
29/02:30am 18.0 16.1 6.8 48 5.6 S 6 9 3 5 1021.3 1021.2 0.0
29/02:00am 18.1 15.7 7.2 49 5.5 S 9 15 5 8 1021.4 1021.3 0.0
29/01:30am 18.1 16.2 6.9 48 5.6 S 6 11 3 6 1021.7 1021.6 0.0
29/01:00am 18.2 15.4 7.0 48 5.6 SSE 11 19 6 10 1021.8 1021.7 0.0
29/12:30am 18.4 15.2 6.9 47 5.8 SSE 13 20 7 11 1021.6 1021.5 0.0
29/12:00am 18.6 16.4 8.0 50 5.4 SSE 9 17 5 9 1021.9 1021.8 0.0
 
Date/Time
EST
Temp
°C
App
Temp
°C
Dew
Point
Rel
Hum
%
Delta-T
°C
Wind Press
QNH
hPa
Press
MSL
hPa
Rain
since 9 am
mm
Dir
 
Spd
km/h
Gust
km/h
Spd
kts
Gust
kts
28/11:30pm 18.6 17.1 8.3 51 5.3 SSW 6 9 3 5 1022.0 1021.9 0.0
28/11:00pm 18.0 17.6 8.3 53 5.0 CALM 0 0 0 0 1021.7 1021.6 0.0
28/10:30pm 18.7 17.5 8.1 50 5.5 SSE 4 11 2 6 1021.6 1021.5 0.0
28/10:00pm 19.5 17.4 8.2 48 5.9 S 9 15 5 8 1021.7 1021.6 0.0
28/09:30pm 19.6 17.9 8.3 48 5.9 SSE 7 13 4 7 1021.5 1021.4 0.0
28/09:00pm 20.0 17.5 8.0 46 6.2 ESE 11 19 6 10 1021.3 1021.2 0.0
28/08:30pm 21.0 17.8 8.3 44 6.7 S 15 24 8 13 1021.0 1020.9 0.0
28/08:00pm 21.6 18.8 8.5 43 6.9 S 13 20 7 11 1020.9 1020.8 0.0
28/07:30pm 21.8 19.2 9.3 45 6.7 SSW 13 20 7 11 1020.3 1020.2 0.0
28/07:00pm 22.2 18.9 9.7 45 6.8 S 17 26 9 14 1019.8 1019.7 0.0
28/06:30pm 21.4 20.4 11.1 52 5.7 SSW 7 11 4 6 1019.5 1019.4 0.0
28/06:00pm 22.3 21.5 11.7 51 6.0 WSW 7 9 4 5 1019.3 1019.2 0.0
28/05:30pm 23.4 22.6 11.8 48 6.6 SW 7 13 4 7 1018.5 1018.4 0.0
28/05:00pm 24.8 23.6 11.7 44 7.5 WSW 9 13 5 7 1017.9 1017.7 0.0
28/04:30pm 25.4 24.7 11.9 43 7.7 SSW 7 13 4 7 1017.7 1017.5 0.0
28/04:00pm 25.8 24.4 12.3 43 7.8 SSW 11 17 6 9 1017.8 1017.6 0.0
28/03:30pm 26.0 25.9 13.2 45 7.5 SW 6 17 3 9 1017.9 1017.7 0.0
28/03:00pm 25.1 24.2 12.7 46 7.2 WSW 9 17 5 9 1018.0 1017.8 0.0
28/02:30pm 25.7 24.1 12.9 45 7.5 WNW 13 24 7 13 1018.2 1018.1 0.0
28/02:00pm 25.8 24.7 13.0 45 7.5 SW 11 19 6 10 1018.3 1018.2 0.0
28/01:30pm 25.0 24.5 12.6 46 7.2 SW 7 19 4 10 1018.7 1018.6 0.0
28/01:00pm 25.1 24.4 13.3 48 6.9 WSW 9 17 5 9 1019.2 1019.1 0.0
28/12:30pm 24.7 23.9 13.0 48 6.8 WSW 9 17 5 9 1019.7 1019.6 0.0
28/12:00pm 24.4 23.7 13.3 50 6.5 SW 9 19 5 10 1020.3 1020.2 0.0
28/11:30am 23.4 22.7 13.3 53 5.9 SW 9 19 5 10 1020.8 1020.7 0.0
28/11:00am 23.7 23.6 13.8 53 5.8 W 7 15 4 8 1021.5 1021.4 0.0
28/10:30am 22.5 21.8 13.3 56 5.3 WSW 9 20 5 11 1022.1 1022.0 0.0
28/10:00am 21.4 20.5 13.6 61 4.5 WSW 11 17 6 9 1022.4 1022.3 0.0
28/09:30am 20.6 19.4 14.0 66 3.8 WSW 13 19 7 10 1022.7 1022.6 0.0
28/09:00am 19.6 19.4 14.8 74 2.8 SW 9 13 5 7 1022.5 1022.4 0.0
28/08:30am 18.5 17.7 15.0 80 2.1 SW 13 19 7 10 1022.6 1022.5 0.0
28/08:00am 18.4 17.5 14.9 80 2.0 SW 13 17 7 9 1022.6 1022.5 0.0
28/07:30am 18.3 17.8 15.0 81 1.9 SW 11 17 6 9 1022.0 1021.9 0.0
28/07:00am 18.1 18.3 14.8 81 1.9 SW 7 13 4 7 1021.6 1021.5 0.0
28/06:30am 17.3 18.9 14.8 85 1.5 CALM 0 0 0 0 1021.2 1021.1 0.0
28/06:00am 17.4 18.8 14.3 82 1.8 CALM 0 0 0 0 1020.6 1020.5 0.0
28/05:30am 17.4 17.7 14.5 83 1.7 W 6 9 3 5 1020.6 1020.5 0.0
28/05:00am 17.5 17.6 14.4 82 1.8 WSW 7 11 4 6 1020.0 1019.9 0.0
28/04:30am 17.6 17.6 14.3 81 1.9 SW 7 9 4 5 1019.8 1019.7 0.0
28/04:00am 17.7 19.0 14.2 80 2.0 CALM 0 0 0 0 1019.4 1019.3 0.0
28/03:30am 18.0 18.2 14.1 78 2.2 WSW 6 7 3 4 1019.6 1019.5 0.0
28/03:00am 18.1 18.7 14.2 78 2.2 WSW 4 6 2 3 1019.8 1019.7 0.0
28/02:30am 18.3 18.5 14.2 77 2.4 W 6 7 3 4 1020.0 1019.9 0.0
28/02:00am 18.3 18.7 14.8 80 2.0 W 6 7 3 4 1019.9 1019.8 0.0
28/01:30am 18.2 19.9 15.1 82 1.8 CALM 0 0 0 0 1019.9 1019.8 0.0
28/01:00am 18.6 19.9 15.1 80 2.0 SW 2 6 1 3 1020.5 1020.4 0.0
28/12:30am 18.8 20.4 14.9 78 2.3 CALM 0 0 0 0 1020.5 1020.4 0.0
28/12:00am 18.8 19.8 15.3 80 2.1 NE 4 6 2 3 1020.7 1020.6 0.0
 
Date/Time
EST
Temp
°C
App
Temp
°C
Dew
Point
Rel
Hum
%
Delta-T
°C
Wind Press
QNH
hPa
Press
MSL
hPa
Rain
since 9 am
mm
Dir
 
Spd
km/h
Gust
km/h
Spd
kts
Gust
kts
27/11:30pm 18.8 20.7 15.7 82 1.8 CALM 0 0 0 0 1020.8 1020.7 0.0
27/11:00pm 19.2 20.9 15.1 77 2.4 CALM 0 0 0 0 1020.8 1020.7 0.0
27/10:30pm 19.0 19.9 15.1 78 2.3 NE 4 6 2 3 1020.7 1020.6 0.0
27/10:00pm 19.2 19.8 14.2 73 2.9 NNE 4 6 2 3 1021.1 1021.0 0.0
27/09:30pm 19.9 20.5 14.3 70 3.3 S 4 4 2 2 1021.0 1020.9 0.0
27/09:00pm 20.5 20.0 13.7 65 3.9 WSW 9 13 5 7 1021.0 1020.9 0.0
27/08:30pm 20.9 20.9 14.1 65 4.0 NE 7 15 4 8 1020.2 1020.1 0.0
27/08:00pm 20.3 20.5 14.7 70 3.3 ENE 7 9 4 5 1020.1 1020.0 0.0
27/07:30pm 20.1 20.9 14.7 71 3.2 NNE 4 4 2 2 1020.2 1020.1 0.0
27/07:00pm 20.6 22.0 14.3 67 3.7 CALM 0 4 0 2 1020.1 1020.0 0.0
27/06:30pm 21.4 22.4 13.3 60 4.7 CALM 0 0 0 0 1019.8 1019.7 0.0
27/06:00pm 21.6 21.7 12.7 57 5.1 WSW 4 6 2 3 1019.5 1019.4 0.0
27/05:30pm 22.2 21.7 12.7 55 5.4 SW 7 9 4 5 1019.4 1019.3 0.0
27/05:00pm 22.6 22.1 12.5 53 5.8 SSW 7 11 4 6 1019.2 1019.1 0.0
27/04:30pm 23.0 21.3 12.3 51 6.1 SW 13 20 7 11 1019.1 1019.0 0.0
27/04:00pm 23.4 21.2 12.1 49 6.4 SW 15 20 8 11 1018.8 1018.7 0.0
27/03:30pm 23.6 21.9 12.6 50 6.3 SW 13 20 7 11 1018.9 1018.8 0.0
27/03:00pm 24.0 22.5 14.1 54 5.8 SSW 15 22 8 12 1018.7 1018.6 0.0
27/02:30pm 22.2 20.9 14.8 63 4.4 SSW 15 20 8 11 1019.1 1019.0 0.0
27/02:00pm 21.7 19.0 16.6 73 3.1 SSW 26 39 14 21 1019.3 1019.2 0.0
27/01:30pm 22.1 20.7 17.0 73 3.1 SW 20 30 11 16 1019.8 1019.7 0.0
27/01:00pm 22.6 21.6 17.5 73 3.2 SW 19 24 10 13 1019.8 1019.7 0.0
27/12:30pm 23.1 22.7 18.0 73 3.2 SW 17 24 9 13 1020.2 1020.1 0.0
27/12:00pm 22.8 22.5 17.3 71 3.4 WSW 15 20 8 11 1020.6 1020.5 0.0
27/11:30am 21.8 21.8 17.2 75 2.8 SW 13 20 7 11 1020.8 1020.7 0.0
27/11:00am 21.2 21.5 18.0 82 2.0 WSW 13 20 7 11 1021.2 1021.1 0.0
27/10:30am 20.2 20.8 17.8 86 1.5 WSW 11 19 6 10 1021.6 1021.5 0.0
27/10:00am 21.0 22.6 17.8 82 2.0 WSW 6 9 3 5 1021.6 1021.5 0.0
27/09:30am 20.6 22.4 18.2 86 1.5 SW 6 7 3 4 1021.6 1021.5 0.0
27/09:00am 20.5 22.6 19.0 91 0.9 NW 6 9 3 5 1021.7 1021.6 -
27/08:30am 19.7 22.3 18.5 93 0.7 N 2 6 1 3 1021.4 1021.3 -
27/08:00am 19.1 22.0 18.1 94 0.6 CALM 0 0 0 0 1021.1 1021.0 -
27/07:30am 18.9 21.8 18.2 96 0.4 CALM 0 0 0 0 1021.0 1020.9 -
27/07:00am 18.6 20.7 18.1 97 0.3 E 4 6 2 3 1020.9 1020.8 -
27/06:30am 18.4 20.4 17.9 97 0.3 E 4 7 2 4 1020.6 1020.5 -
27/06:00am 18.4 20.0 17.9 97 0.3 NE 6 7 3 4 1020.7 1020.6 -
27/05:30am 18.6 21.5 18.1 97 0.3 CALM 0 6 0 3 1020.7 1020.6 -
27/05:00am 18.6 19.6 17.8 95 0.5 SW 9 13 5 7 1020.4 1020.3 -
27/04:30am 19.0 20.6 17.8 93 0.7 NNE 6 9 3 5 1020.7 1020.6 -
27/04:00am 19.4 21.6 17.4 88 1.2 NW 2 4 1 2 1020.6 1020.5 -
27/03:30am 19.5 22.0 17.3 87 1.3 CALM 0 0 0 0 1020.5 1020.4 -
27/03:00am 19.5 22.0 17.3 87 1.3 CALM 0 2 0 1 1020.7 1020.6 0.0
27/02:30am 19.2 21.7 17.2 88 1.2 CALM 0 0 0 0 1020.8 1020.7 -
27/02:00am 19.2 21.6 17.0 87 1.3 CALM 0 0 0 0 1020.7 1020.6 -
27/01:30am 19.4 21.2 17.4 88 1.2 ESE 4 6 2 3 1021.0 1020.9 -
27/01:00am 19.1 21.2 17.1 88 1.2 S 2 4 1 2 1021.3 1021.2 -
27/12:30am 19.2 20.8 17.0 87 1.3 NNE 4 7 2 4 1021.3 1021.2 -
27/12:00am 19.7 21.1 17.3 86 1.5 E 6 7 3 4 1021.5 1021.4 -
 
Date/Time
EST
Temp
°C
App
Temp
°C
Dew
Point
Rel
Hum
%
Delta-T
°C
Wind Press
QNH
hPa
Press
MSL
hPa
Rain
since 9 am
mm
Dir
 
Spd
km/h
Gust
km/h
Spd
kts
Gust
kts
26/11:30pm 19.9 21.1 17.3 85 1.6 ENE 7 11 4 6 1021.7 1021.6 -
26/11:00pm 19.8 21.0 17.4 86 1.5 ENE 7 9 4 5 1021.7 1021.6 -
26/10:30pm 19.7 20.3 16.9 84 1.7 NE 9 11 5 6 1021.6 1021.5 -
26/10:00pm 20.1 21.2 17.1 83 1.8 ESE 7 9 4 5 1021.2 1021.1 -
26/09:30pm 20.6 21.9 17.0 80 2.2 E 6 7 3 4 1021.2 1021.1 -
26/09:00pm 21.2 20.7 17.0 77 2.6 ENE 15 20 8 11 1020.8 1020.7 0.0
26/08:30pm 21.9 22.4 17.5 76 2.7 NE 11 15 6 8 1021.0 1020.9 -
26/08:00pm 23.4 24.2 17.2 68 3.8 NE 9 15 5 8 1020.6 1020.5 -
26/07:30pm 24.0 23.7 17.3 66 4.2 NE 15 24 8 13 1020.0 1019.9 -
26/07:00pm 24.3 25.1 13.8 52 6.2 WSW 2 4 1 2 1019.0 1018.9 -
26/06:30pm 24.6 25.1 14.1 52 6.2 SSW 4 6 2 3 1018.6 1018.5 -
26/06:00pm 25.2 25.2 13.7 49 6.8 SSW 6 7 3 4 1018.2 1018.1 -

Other Formats:

Comma delimited format used in spreadsheet applications
http://www.bom.gov.au/fwo/IDQ60801/IDQ60801.95543.axf

JavaScript Object Notation format (JSON) in row-major order
http://www.bom.gov.au/fwo/IDQ60801/IDQ60801.95543.json